Time;durP1;ratioP1;P1;durP2;ratioP2;P2;SDS_P1;SDS_P2;PMS_P1;PMS_P2;Temp;Humidity;BMP_temperature;BMP_pressure;BME280_temperature;BME280_humidity;BME280_pressure;Samples;Min_cycle;Max_cycle;Signal;HPM_P1;HPM_P2
2024/03/24 00:00:26;;;;;;;7.63;3.03;;;6.80;99.90;;;;;;2094472;28;20123;-70
2024/03/24 00:01:26;;;;;;;5.47;2.70;;;6.80;99.90;;;;;;2095077;28;20033;-71
2024/03/24 00:02:27;;;;;;;6.15;3.33;;;6.80;99.90;;;;;;2094263;28;20973;-70
2024/03/24 00:03:28;;;;;;;5.22;2.90;;;6.80;99.90;;;;;;2094600;28;20033;-70
2024/03/24 00:04:28;;;;;;;7.82;3.20;;;6.80;99.90;;;;;;2095236;28;20033;-70
2024/03/24 00:05:29;;;;;;;5.85;3.05;;;6.80;99.90;;;;;;2087076;28;20031;-70
2024/03/24 00:06:29;;;;;;;4.38;2.95;;;6.80;99.90;;;;;;2086475;28;20091;-71
2024/03/24 00:07:30;;;;;;;4.70;2.90;;;6.80;99.90;;;;;;2095708;28;20029;-69
2024/03/24 00:08:31;;;;;;;6.22;2.90;;;6.80;99.90;;;;;;2095155;28;20032;-70
2024/03/24 00:09:32;;;;;;;6.20;3.50;;;6.90;99.90;;;;;;2095337;28;20400;-70
2024/03/24 00:10:32;;;;;;;5.03;3.28;;;6.90;99.90;;;;;;2095427;28;20028;-70
2024/03/24 00:11:33;;;;;;;7.03;3.22;;;6.90;99.90;;;;;;2092602;28;20021;-70
2024/03/24 00:12:33;;;;;;;5.45;3.38;;;6.90;99.90;;;;;;2094033;28;20114;-70
2024/03/24 00:13:34;;;;;;;7.38;3.90;;;6.90;99.90;;;;;;2094612;28;20170;-70
2024/03/24 00:14:35;;;;;;;5.43;3.97;;;6.80;99.90;;;;;;2093166;28;20017;-70
2024/03/24 00:15:35;;;;;;;5.47;3.67;;;6.90;99.90;;;;;;2093509;28;20021;-71
2024/03/24 00:16:36;;;;;;;5.07;3.70;;;6.90;99.90;;;;;;2095326;28;20032;-70
2024/03/24 00:17:37;;;;;;;5.28;3.72;;;6.80;99.90;;;;;;2093525;28;20112;-70
2024/03/24 00:18:37;;;;;;;5.57;3.33;;;6.90;99.90;;;;;;2095591;28;20021;-69
2024/03/24 00:19:38;;;;;;;7.82;3.78;;;6.90;99.90;;;;;;2094018;28;20120;-70
2024/03/24 00:20:38;;;;;;;7.70;3.70;;;6.90;99.90;;;;;;2092122;28;20067;-70
2024/03/24 00:21:40;;;;;;;8.32;3.60;;;6.90;99.90;;;;;;2095854;28;20485;-70
2024/03/24 00:22:40;;;;;;;8.68;4.40;;;6.90;99.90;;;;;;2093549;28;20023;-70
2024/03/24 00:23:41;;;;;;;7.30;4.47;;;6.90;99.90;;;;;;2095427;28;20046;-70
2024/03/24 00:24:41;;;;;;;5.03;3.28;;;6.90;99.90;;;;;;2094532;28;20017;-70
2024/03/24 00:25:42;;;;;;;8.82;4.35;;;6.90;99.90;;;;;;2087639;28;20066;-70
2024/03/24 00:26:42;;;;;;;6.22;3.80;;;6.90;99.90;;;;;;2088379;28;20036;-70
2024/03/24 00:27:43;;;;;;;6.07;3.97;;;6.90;99.90;;;;;;2094977;28;20626;-70
2024/03/24 00:28:43;;;;;;;4.05;3.65;;;6.90;99.90;;;;;;2094484;28;20416;-69
2024/03/24 00:29:44;;;;;;;5.38;3.80;;;6.90;99.90;;;;;;2095274;28;20020;-72
2024/03/24 00:30:44;;;;;;;9.40;4.43;;;6.90;99.90;;;;;;2093618;28;20146;-70
2024/03/24 00:31:45;;;;;;;9.23;4.50;;;6.90;99.90;;;;;;2095303;28;20024;-70
2024/03/24 00:32:47;;;;;;;5.97;4.45;;;6.90;99.90;;;;;;2094728;28;20047;-70
2024/03/24 00:33:48;;;;;;;6.60;4.13;;;6.90;99.90;;;;;;2093695;28;20019;-70
2024/03/24 00:34:48;;;;;;;7.55;4.10;;;6.90;99.90;;;;;;2096752;28;20020;-70
2024/03/24 00:35:49;;;;;;;6.32;3.97;;;6.90;99.90;;;;;;2094902;28;20025;-70
2024/03/24 00:36:49;;;;;;;6.55;4.55;;;6.90;99.90;;;;;;2093870;28;20029;-71
2024/03/24 00:37:50;;;;;;;5.97;4.00;;;6.90;99.90;;;;;;2087776;28;20052;-70
2024/03/24 00:38:51;;;;;;;6.70;4.00;;;6.90;99.90;;;;;;2087478;28;20199;-70
2024/03/24 00:39:52;;;;;;;10.57;4.45;;;6.90;99.90;;;;;;2093375;28;20469;-70
2024/03/24 00:40:53;;;;;;;9.30;5.07;;;6.80;99.90;;;;;;2094454;28;20477;-70
2024/03/24 00:41:53;;;;;;;6.88;4.47;;;6.80;99.90;;;;;;2095574;28;20453;-70
2024/03/24 00:42:55;;;;;;;8.57;4.55;;;6.80;99.90;;;;;;2094559;28;20428;-70
2024/03/24 00:43:59;;;;;;;8.48;4.80;;;6.80;99.90;;;;;;2094994;28;20056;-70
2024/03/24 00:44:59;;;;;;;6.22;4.35;;;6.80;99.90;;;;;;2095669;28;20025;-70
2024/03/24 00:46:00;;;;;;;8.52;5.30;;;6.80;99.90;;;;;;2094852;28;20101;-70
2024/03/24 00:47:00;;;;;;;9.88;5.35;;;6.90;99.90;;;;;;2094143;28;20354;-70
2024/03/24 00:48:01;;;;;;;9.38;5.13;;;6.90;99.90;;;;;;2093180;28;20036;-69
2024/03/24 00:49:04;;;;;;;9.80;5.30;;;6.90;99.90;;;;;;2094849;28;20028;-70
2024/03/24 00:50:05;;;;;;;8.95;5.80;;;6.90;99.90;;;;;;2094556;28;20111;-70
2024/03/24 00:51:05;;;;;;;8.45;5.32;;;6.90;99.90;;;;;;2093674;28;20029;-70
2024/03/24 00:52:06;;;;;;;10.98;5.95;;;6.90;99.90;;;;;;2093968;28;20092;-70
2024/03/24 00:53:06;;;;;;;6.53;4.70;;;6.90;99.90;;;;;;2084067;28;21390;-70
2024/03/24 00:54:07;;;;;;;11.02;6.25;;;6.90;99.90;;;;;;2086492;28;20048;-70
2024/03/24 00:55:08;;;;;;;6.72;5.38;;;6.90;99.90;;;;;;2092921;28;20111;-71
2024/03/24 00:56:08;;;;;;;8.15;4.90;;;6.90;99.90;;;;;;2093940;28;20074;-70
2024/03/24 00:57:09;;;;;;;8.02;5.30;;;6.90;99.90;;;;;;2094330;28;20021;-70
2024/03/24 00:58:10;;;;;;;7.55;5.45;;;6.90;99.90;;;;;;2093521;28;20104;-70
2024/03/24 00:59:10;;;;;;;7.57;5.57;;;6.90;99.90;;;;;;2087254;28;20021;-70
2024/03/24 01:00:11;;;;;;;6.95;5.30;;;6.90;99.90;;;;;;2088367;28;20033;-71
2024/03/24 01:01:12;;;;;;;8.18;5.72;;;6.90;99.90;;;;;;2093923;28;20071;-70
2024/03/24 01:02:13;;;;;;;9.38;5.75;;;6.90;99.90;;;;;;2096325;28;20073;-70
2024/03/24 01:03:13;;;;;;;6.68;5.07;;;6.90;99.90;;;;;;2093585;28;20063;-70
2024/03/24 01:04:15;;;;;;;7.07;5.20;;;6.90;99.90;;;;;;2093223;28;20540;-71
2024/03/24 01:05:15;;;;;;;10.18;5.30;;;6.90;99.90;;;;;;2094017;28;20023;-70
2024/03/24 01:06:17;;;;;;;7.38;5.57;;;6.90;99.90;;;;;;2093583;28;20032;-65
2024/03/24 01:07:18;;;;;;;5.35;4.70;;;6.90;99.90;;;;;;2094154;28;20028;-65
2024/03/24 01:08:18;;;;;;;6.38;5.10;;;6.90;99.90;;;;;;2096018;28;20457;-65
2024/03/24 01:09:19;;;;;;;6.10;4.55;;;6.90;99.90;;;;;;2094490;28;20028;-65
2024/03/24 01:10:19;;;;;;;10.15;5.28;;;6.90;99.90;;;;;;2093220;28;20029;-66
2024/03/24 01:11:20;;;;;;;6.82;4.85;;;6.90;99.90;;;;;;2091474;28;20846;-66
2024/03/24 01:12:23;;;;;;;9.90;5.25;;;6.90;99.90;;;;;;2094849;28;20050;-65
2024/03/24 01:13:23;;;;;;;5.93;5.18;;;6.90;99.90;;;;;;2094899;28;20036;-67
2024/03/24 01:14:24;;;;;;;8.43;5.63;;;6.90;99.90;;;;;;2084942;28;20021;-65
2024/03/24 01:15:25;;;;;;;7.80;5.90;;;6.90;99.90;;;;;;2084496;28;20029;-66
2024/03/24 01:16:26;;;;;;;7.88;5.05;;;6.90;99.90;;;;;;2095024;28;20099;-66
2024/03/24 01:17:26;;;;;;;8.15;5.60;;;6.90;99.90;;;;;;2094581;28;20090;-65
2024/03/24 01:18:27;;;;;;;7.75;5.70;;;6.90;99.90;;;;;;2093921;28;20445;-65
2024/03/24 01:19:27;;;;;;;10.23;6.30;;;6.90;99.90;;;;;;2094326;28;20028;-66
2024/03/24 01:20:28;;;;;;;6.28;5.68;;;6.90;99.90;;;;;;2093559;28;20033;-65
2024/03/24 01:21:29;;;;;;;10.98;5.88;;;6.90;99.90;;;;;;2092600;28;20039;-66
2024/03/24 01:22:29;;;;;;;9.27;6.68;;;6.90;99.90;;;;;;2094512;28;20384;-66
2024/03/24 01:23:30;;;;;;;10.35;6.18;;;6.90;99.90;;;;;;2092732;28;20032;-65
2024/03/24 01:24:30;;;;;;;10.60;6.47;;;6.90;99.90;;;;;;2094905;28;20024;-66
2024/03/24 01:25:31;;;;;;;8.10;6.63;;;6.90;99.90;;;;;;2095448;28;20028;-66
2024/03/24 01:26:32;;;;;;;9.43;6.07;;;6.90;99.90;;;;;;2094709;28;20153;-66
2024/03/24 01:27:32;;;;;;;10.35;6.55;;;6.90;99.90;;;;;;2087571;28;20662;-65
2024/03/24 01:28:33;;;;;;;12.85;6.63;;;6.90;99.90;;;;;;2087691;28;20025;-65
2024/03/24 01:29:33;;;;;;;9.80;6.03;;;6.90;99.90;;;;;;2094258;28;20074;-65
2024/03/24 01:30:34;;;;;;;10.40;6.22;;;6.90;99.90;;;;;;2095382;28;20033;-65
2024/03/24 01:31:35;;;;;;;8.60;6.60;;;6.90;99.90;;;;;;2093978;28;20029;-66
2024/03/24 01:32:36;;;;;;;7.07;5.82;;;6.90;99.90;;;;;;2095113;28;20028;-65
2024/03/24 01:33:36;;;;;;;10.27;7.07;;;7.00;99.90;;;;;;2092392;28;20025;-65
2024/03/24 01:34:37;;;;;;;7.78;6.18;;;7.00;99.90;;;;;;2095292;28;20029;-65
2024/03/24 01:35:45;;;;;;;7.90;6.47;;;6.90;99.90;;;;;;2094112;28;20029;-65
2024/03/24 01:36:47;;;;;;;8.80;6.22;;;7.00;99.90;;;;;;2094692;28;20578;-65
2024/03/24 01:37:48;;;;;;;8.90;6.38;;;7.00;99.90;;;;;;2094329;28;20032;-65
2024/03/24 01:38:48;;;;;;;13.90;6.82;;;7.00;99.90;;;;;;2094283;28;20119;-66
2024/03/24 01:39:49;;;;;;;8.13;6.47;;;7.00;99.90;;;;;;2094577;28;20024;-67
2024/03/24 01:40:50;;;;;;;10.75;6.30;;;7.00;99.90;;;;;;2095307;28;20047;-65
2024/03/24 01:41:51;;;;;;;7.18;6.05;;;7.00;99.90;;;;;;2094638;28;20056;-64
2024/03/24 01:42:52;;;;;;;11.35;6.05;;;7.00;99.90;;;;;;2094409;28;20017;-65
2024/03/24 01:43:52;;;;;;;12.32;7.20;;;7.00;99.90;;;;;;2090664;28;20061;-64
2024/03/24 01:44:53;;;;;;;9.80;6.13;;;7.00;99.90;;;;;;2093935;28;20144;-64
2024/03/24 01:45:53;;;;;;;8.88;5.93;;;7.00;99.90;;;;;;2094123;28;20077;-65
2024/03/24 01:46:54;;;;;;;10.20;6.28;;;7.00;99.90;;;;;;2093334;28;20025;-64
2024/03/24 01:47:55;;;;;;;7.85;6.78;;;7.00;99.90;;;;;;2093641;28;20079;-65
2024/03/24 01:48:55;;;;;;;8.60;6.47;;;7.00;99.90;;;;;;2094350;28;20119;-65
2024/03/24 01:49:56;;;;;;;8.18;6.35;;;7.00;99.90;;;;;;2093799;28;20488;-64
2024/03/24 01:50:57;;;;;;;8.52;5.80;;;7.00;99.90;;;;;;2093012;28;20029;-65
2024/03/24 01:51:57;;;;;;;11.65;6.18;;;7.00;99.90;;;;;;2093562;28;20033;-65
2024/03/24 01:52:59;;;;;;;12.98;6.88;;;7.00;99.90;;;;;;2093834;28;20029;-65
2024/03/24 01:53:59;;;;;;;6.60;6.03;;;7.00;99.90;;;;;;2092651;28;20393;-66
2024/03/24 01:55:01;;;;;;;8.13;6.03;;;7.00;99.90;;;;;;2092180;28;20048;-64
2024/03/24 01:56:02;;;;;;;7.53;6.53;;;7.00;99.90;;;;;;2095216;28;20016;-65
2024/03/24 01:57:03;;;;;;;10.70;6.03;;;7.00;99.90;;;;;;2092661;28;20442;-65
2024/03/24 01:58:04;;;;;;;6.35;5.53;;;7.00;99.90;;;;;;2094151;28;20047;-64
2024/03/24 01:59:05;;;;;;;7.82;5.90;;;7.00;99.90;;;;;;2093469;28;20036;-65
2024/03/24 02:00:08;;;;;;;10.68;6.18;;;7.00;99.90;;;;;;2093985;28;20028;-66
2024/03/24 02:01:08;;;;;;;6.93;5.85;;;7.10;99.90;;;;;;2093013;28;20131;-66
2024/03/24 02:02:09;;;;;;;8.60;5.78;;;7.00;99.90;;;;;;2092697;28;20036;-65
2024/03/24 02:03:09;;;;;;;7.50;5.72;;;7.10;99.90;;;;;;2092330;28;20031;-64
2024/03/24 02:04:10;;;;;;;8.13;6.28;;;7.10;99.90;;;;;;2093474;28;20025;-65
2024/03/24 02:05:10;;;;;;;9.25;5.93;;;7.10;99.90;;;;;;2095163;28;20032;-65
2024/03/24 02:06:11;;;;;;;7.93;5.93;;;7.10;99.90;;;;;;2093927;28;20701;-64
2024/03/24 02:07:11;;;;;;;8.90;6.05;;;7.10;99.90;;;;;;2095184;28;20546;-65
2024/03/24 02:08:12;;;;;;;11.40;6.45;;;7.10;99.90;;;;;;2095051;28;20047;-64
2024/03/24 02:09:13;;;;;;;8.82;6.40;;;7.10;99.90;;;;;;2098059;28;20040;-66
2024/03/24 02:10:13;;;;;;;9.27;6.18;;;7.10;99.90;;;;;;2095401;28;20747;-65
2024/03/24 02:11:14;;;;;;;11.60;6.60;;;7.10;99.90;;;;;;2094144;28;20438;-65
2024/03/24 02:12:14;;;;;;;7.22;5.68;;;7.10;99.90;;;;;;2094858;28;20025;-64
2024/03/24 02:13:15;;;;;;;9.98;6.43;;;7.10;99.90;;;;;;2094353;28;20035;-65
2024/03/24 02:14:15;;;;;;;7.00;5.70;;;7.10;99.90;;;;;;2094880;28;20025;-65
2024/03/24 02:15:16;;;;;;;8.48;6.78;;;7.10;99.90;;;;;;2096473;28;20025;-65
2024/03/24 02:16:17;;;;;;;7.90;5.65;;;7.10;99.90;;;;;;2094990;28;20052;-65
2024/03/24 02:17:17;;;;;;;8.45;5.88;;;7.10;99.90;;;;;;2094534;28;20148;-65
2024/03/24 02:18:18;;;;;;;7.75;6.40;;;7.20;99.90;;;;;;2096781;28;20024;-65
2024/03/24 02:19:18;;;;;;;7.97;6.28;;;7.20;99.90;;;;;;2094880;28;20450;-65
2024/03/24 02:20:19;;;;;;;7.50;6.10;;;7.10;99.90;;;;;;2095891;28;20480;-65
2024/03/24 02:21:19;;;;;;;8.00;5.70;;;7.10;99.90;;;;;;2096164;28;20400;-65
2024/03/24 02:22:20;;;;;;;7.32;6.13;;;7.10;99.90;;;;;;2093718;28;20035;-65
2024/03/24 02:23:20;;;;;;;12.90;6.25;;;7.10;99.90;;;;;;2095851;28;20039;-64
2024/03/24 02:24:21;;;;;;;8.75;6.30;;;7.20;99.90;;;;;;2095544;28;20602;-65
2024/03/24 02:25:21;;;;;;;8.40;5.68;;;7.10;99.90;;;;;;2093262;28;20021;-65
2024/03/24 02:26:22;;;;;;;7.32;6.30;;;7.20;99.90;;;;;;2095165;28;20090;-65
2024/03/24 02:27:23;;;;;;;11.35;6.63;;;7.10;99.90;;;;;;2095667;28;20063;-65
2024/03/24 02:28:23;;;;;;;9.55;6.85;;;7.10;99.90;;;;;;2096447;28;20064;-65
2024/03/24 02:29:24;;;;;;;8.15;6.28;;;7.10;99.90;;;;;;2096458;28;20025;-64
2024/03/24 02:30:24;;;;;;;10.27;7.10;;;7.10;99.90;;;;;;2094620;28;20039;-64
2024/03/24 02:31:25;;;;;;;9.60;6.28;;;7.10;99.90;;;;;;2094364;28;20504;-65
2024/03/24 02:32:26;;;;;;;10.70;6.43;;;7.10;99.90;;;;;;2093890;28;20025;-65
2024/03/24 02:33:27;;;;;;;8.38;6.80;;;7.10;99.90;;;;;;2094028;28;20040;-65
2024/03/24 02:34:28;;;;;;;12.23;6.95;;;7.20;99.90;;;;;;2095122;28;20028;-66
2024/03/24 02:35:29;;;;;;;10.70;6.70;;;7.10;99.90;;;;;;2096094;28;20016;-65
2024/03/24 02:36:29;;;;;;;7.40;6.50;;;7.20;99.90;;;;;;2096551;28;20082;-66
2024/03/24 02:37:30;;;;;;;7.53;6.30;;;7.20;99.90;;;;;;2086584;28;20021;-65
2024/03/24 02:38:30;;;;;;;8.43;6.40;;;7.10;99.90;;;;;;2087025;28;20029;-66
2024/03/24 02:39:31;;;;;;;6.75;6.05;;;7.20;99.90;;;;;;2093476;28;20426;-65
2024/03/24 02:40:31;;;;;;;10.15;6.57;;;7.20;99.90;;;;;;2092849;28;20084;-66
2024/03/24 02:41:33;;;;;;;9.90;6.63;;;7.20;99.90;;;;;;2093765;28;20056;-66
2024/03/24 02:42:33;;;;;;;7.65;6.05;;;7.20;99.90;;;;;;2095334;28;20039;-66
2024/03/24 02:43:36;;;;;;;7.72;5.60;;;7.20;99.90;;;;;;2094807;28;20465;-65
2024/03/24 02:44:37;;;;;;;7.75;6.00;;;7.20;99.90;;;;;;2096320;28;20432;-65
2024/03/24 02:45:38;;;;;;;9.75;6.55;;;7.20;99.90;;;;;;2095165;28;20071;-66
2024/03/24 02:46:38;;;;;;;7.28;6.05;;;7.20;99.90;;;;;;2094801;28;20146;-65
2024/03/24 02:47:39;;;;;;;8.50;5.45;;;7.20;99.90;;;;;;2095275;28;20028;-66
2024/03/24 02:48:40;;;;;;;8.93;6.35;;;7.20;99.90;;;;;;2095691;28;20552;-66
2024/03/24 02:49:40;;;;;;;8.43;6.00;;;7.20;99.90;;;;;;2095750;28;20138;-65
2024/03/24 02:50:41;;;;;;;8.52;5.93;;;7.20;99.90;;;;;;2093014;28;20436;-65
2024/03/24 02:51:41;;;;;;;10.20;6.80;;;7.20;99.90;;;;;;2086334;28;20083;-66
2024/03/24 02:52:41;;;;;;;7.25;6.03;;;7.20;99.90;;;;;;2087466;28;20029;-65
2024/03/24 02:53:42;;;;;;;9.18;7.10;;;7.20;99.90;;;;;;2094018;28;20025;-66
2024/03/24 02:54:43;;;;;;;7.78;6.03;;;7.20;99.90;;;;;;2094930;28;20023;-66
2024/03/24 02:55:50;;;;;;;7.72;6.93;;;7.20;99.90;;;;;;2093634;28;20021;-66
2024/03/24 02:56:50;;;;;;;8.45;6.53;;;7.20;99.90;;;;;;2085969;28;20017;-70
2024/03/24 02:57:52;;;;;;;10.65;6.60;;;7.20;99.90;;;;;;2084679;28;20045;-66
2024/03/24 02:58:52;;;;;;;9.98;7.07;;;7.20;99.90;;;;;;2095523;28;20043;-66
2024/03/24 02:59:53;;;;;;;11.02;7.43;;;7.30;99.90;;;;;;2096092;28;20033;-65
2024/03/24 03:00:53;;;;;;;9.13;7.10;;;7.20;99.90;;;;;;2095631;28;20047;-65
2024/03/24 03:01:54;;;;;;;8.65;6.88;;;7.20;99.90;;;;;;2096151;28;20086;-66
2024/03/24 03:02:55;;;;;;;9.70;6.55;;;7.20;99.90;;;;;;2094078;28;20028;-65
2024/03/24 03:03:57;;;;;;;8.80;6.57;;;7.20;99.90;;;;;;2097613;28;20053;-66
2024/03/24 03:04:58;;;;;;;9.45;6.60;;;7.20;99.90;;;;;;2094909;28;20449;-66
2024/03/24 03:05:59;;;;;;;8.63;6.45;;;7.20;99.90;;;;;;2095699;28;20358;-66
2024/03/24 03:07:00;;;;;;;10.13;6.47;;;7.20;99.90;;;;;;2095834;28;20420;-66
2024/03/24 03:08:02;;;;;;;7.30;6.60;;;7.20;99.90;;;;;;2093523;28;20039;-66
2024/03/24 03:09:07;;;;;;;12.07;6.47;;;7.20;99.90;;;;;;2092421;28;20078;-66
2024/03/24 03:10:08;;;;;;;10.45;6.88;;;7.20;99.90;;;;;;2095909;28;20111;-65
2024/03/24 03:11:09;;;;;;;7.78;6.38;;;7.20;99.90;;;;;;2095935;28;20024;-66
2024/03/24 03:12:10;;;;;;;10.43;6.97;;;7.20;99.90;;;;;;2095599;28;20029;-65
2024/03/24 03:13:11;;;;;;;8.23;6.38;;;7.20;99.90;;;;;;2093865;28;20107;-66
2024/03/24 03:14:11;;;;;;;10.82;7.07;;;7.20;99.90;;;;;;2096329;28;20021;-66
2024/03/24 03:15:15;;;;;;;11.30;6.68;;;7.20;99.90;;;;;;2095073;28;20033;-65
2024/03/24 03:16:15;;;;;;;10.13;7.22;;;7.20;99.90;;;;;;2095317;28;20024;-65
2024/03/24 03:17:16;;;;;;;8.35;6.82;;;7.20;99.90;;;;;;2094519;28;20063;-65
2024/03/24 03:18:16;;;;;;;9.98;6.70;;;7.20;99.90;;;;;;2096784;28;20020;-66
2024/03/24 03:19:17;;;;;;;9.02;6.70;;;7.20;99.90;;;;;;2094630;28;20024;-65
2024/03/24 03:20:18;;;;;;;8.45;7.00;;;7.20;99.90;;;;;;2097173;28;20049;-67
2024/03/24 03:21:18;;;;;;;7.70;6.18;;;7.20;99.90;;;;;;2094330;28;20032;-66
2024/03/24 03:22:19;;;;;;;8.57;6.53;;;7.20;99.90;;;;;;2095272;28;20082;-66
2024/03/24 03:23:20;;;;;;;8.32;6.25;;;7.20;99.90;;;;;;2095573;28;20368;-66
2024/03/24 03:24:20;;;;;;;8.45;6.03;;;7.20;99.90;;;;;;2095299;28;20029;-65
2024/03/24 03:25:21;;;;;;;7.25;6.22;;;7.20;99.90;;;;;;2093547;28;20032;-67
2024/03/24 03:26:21;;;;;;;8.35;5.50;;;7.20;99.90;;;;;;2095297;28;20028;-66
2024/03/24 03:27:22;;;;;;;8.02;5.60;;;7.20;99.90;;;;;;2096460;28;20567;-66
2024/03/24 03:28:22;;;;;;;8.93;6.13;;;7.20;99.90;;;;;;2095176;28;20442;-66
2024/03/24 03:29:23;;;;;;;6.82;5.18;;;7.20;99.90;;;;;;2093410;28;20044;-66
2024/03/24 03:30:24;;;;;;;7.32;5.30;;;7.20;99.90;;;;;;2095258;28;20506;-65
2024/03/24 03:31:24;;;;;;;6.88;5.10;;;7.20;99.90;;;;;;2094998;28;20029;-66
2024/03/24 03:32:27;;;;;;;5.63;4.97;;;7.10;99.90;;;;;;2096336;28;20074;-66
2024/03/24 03:33:28;;;;;;;6.13;5.25;;;7.10;99.90;;;;;;2095248;28;20366;-66
2024/03/24 03:34:28;;;;;;;7.30;4.68;;;7.20;99.90;;;;;;2094107;28;20039;-65
2024/03/24 03:35:29;;;;;;;6.57;5.00;;;7.10;99.90;;;;;;2095049;28;20024;-66
2024/03/24 03:36:30;;;;;;;8.63;5.15;;;7.20;99.90;;;;;;2094807;28;20020;-66
2024/03/24 03:37:30;;;;;;;5.75;4.97;;;7.20;99.90;;;;;;2093763;28;20021;-66
2024/03/24 03:38:31;;;;;;;6.38;5.57;;;7.10;99.90;;;;;;2094318;28;20020;-66
2024/03/24 03:39:31;;;;;;;7.50;5.18;;;7.10;99.90;;;;;;2093210;28;20028;-66
2024/03/24 03:40:32;;;;;;;7.78;5.20;;;7.20;99.90;;;;;;2094557;28;20028;-66
2024/03/24 03:41:32;;;;;;;5.38;4.30;;;7.20;99.90;;;;;;2094336;28;20021;-70
2024/03/24 03:42:33;;;;;;;6.65;4.78;;;7.20;99.90;;;;;;2095072;28;20404;-70
2024/03/24 03:43:34;;;;;;;5.82;4.57;;;7.10;99.90;;;;;;2093873;28;20111;-69
2024/03/24 03:44:34;;;;;;;5.75;5.13;;;7.10;99.90;;;;;;2095782;28;20043;-70
2024/03/24 03:45:35;;;;;;;6.13;4.80;;;7.20;99.90;;;;;;2094036;28;20035;-70
2024/03/24 03:46:35;;;;;;;5.78;5.10;;;7.10;99.90;;;;;;2094727;28;20120;-70
2024/03/24 03:47:36;;;;;;;6.60;4.75;;;7.20;99.90;;;;;;2094371;28;20029;-69
2024/03/24 03:48:39;;;;;;;6.28;5.13;;;7.20;99.90;;;;;;2095255;28;20524;-70
2024/03/24 03:49:42;;;;;;;7.45;5.30;;;7.10;99.90;;;;;;2093983;28;20024;-70
2024/03/24 03:50:43;;;;;;;8.52;5.38;;;7.10;99.90;;;;;;2093941;28;20036;-69
2024/03/24 03:51:46;;;;;;;5.57;4.82;;;7.20;99.90;;;;;;2088028;28;20033;-70
2024/03/24 03:52:47;;;;;;;7.07;5.72;;;7.10;99.90;;;;;;2085960;28;20021;-71
2024/03/24 03:53:49;;;;;;;6.70;5.75;;;7.10;99.90;;;;;;2091546;28;20495;-69
2024/03/24 03:54:50;;;;;;;8.88;5.80;;;7.10;99.90;;;;;;2094723;28;20377;-70
2024/03/24 03:55:51;;;;;;;6.97;5.80;;;7.10;99.90;;;;;;2095319;28;20025;-70
2024/03/24 03:56:53;;;;;;;7.00;5.38;;;7.10;99.90;;;;;;2084510;28;20029;-70
2024/03/24 03:57:54;;;;;;;7.03;6.05;;;7.20;99.90;;;;;;2085235;28;20074;-70
2024/03/24 03:58:54;;;;;;;7.90;5.93;;;7.10;99.90;;;;;;2094649;28;20033;-70
2024/03/24 03:59:55;;;;;;;7.50;5.75;;;7.10;99.90;;;;;;2095849;28;20036;-70
2024/03/24 04:00:55;;;;;;;6.53;5.93;;;7.10;99.90;;;;;;2095046;28;20519;-70
2024/03/24 04:01:56;;;;;;;6.28;5.68;;;7.10;99.90;;;;;;2095209;28;20032;-70
2024/03/24 04:02:56;;;;;;;7.47;6.00;;;7.20;99.90;;;;;;2093730;28;20441;-70
2024/03/24 04:03:59;;;;;;;7.90;5.65;;;7.10;99.90;;;;;;2094281;28;20095;-71
2024/03/24 04:04:59;;;;;;;7.57;6.05;;;7.10;99.90;;;;;;2095353;28;20560;-70
2024/03/24 04:06:03;;;;;;;6.78;5.63;;;7.10;99.90;;;;;;2096018;28;20393;-70
2024/03/24 04:07:04;;;;;;;8.07;5.75;;;7.10;99.90;;;;;;2094685;28;20189;-71
2024/03/24 04:08:06;;;;;;;12.43;6.50;;;7.10;99.90;;;;;;2096437;28;20146;-70
2024/03/24 04:09:08;;;;;;;7.75;6.28;;;7.10;99.90;;;;;;2095436;28;20052;-70
2024/03/24 04:10:09;;;;;;;8.40;5.88;;;7.10;99.90;;;;;;2094657;28;20086;-70
2024/03/24 04:11:10;;;;;;;9.82;6.63;;;7.10;99.90;;;;;;2093403;28;20070;-70
2024/03/24 04:12:10;;;;;;;7.75;6.45;;;7.20;99.90;;;;;;2093398;28;20032;-70
2024/03/24 04:13:11;;;;;;;9.18;6.32;;;7.20;99.90;;;;;;2091996;28;20016;-69
2024/03/24 04:14:11;;;;;;;7.47;6.70;;;7.20;99.90;;;;;;2094777;28;20062;-70
2024/03/24 04:15:12;;;;;;;7.50;6.32;;;7.10;99.90;;;;;;2094755;28;20436;-70
2024/03/24 04:16:12;;;;;;;10.82;6.70;;;7.10;99.90;;;;;;2086736;28;20044;-71
2024/03/24 04:17:13;;;;;;;10.43;6.43;;;7.20;99.90;;;;;;2089251;28;20393;-70
2024/03/24 04:18:13;;;;;;;9.02;6.30;;;7.20;99.90;;;;;;2094478;28;20089;-70
2024/03/24 04:19:14;;;;;;;9.57;6.90;;;7.10;99.90;;;;;;2094158;28;20056;-70
2024/03/24 04:20:15;;;;;;;7.82;7.03;;;7.10;99.90;;;;;;2095642;28;20029;-70
2024/03/24 04:21:16;;;;;;;8.57;6.88;;;7.20;99.90;;;;;;2093661;28;20424;-71
2024/03/24 04:22:17;;;;;;;10.73;7.72;;;7.10;99.90;;;;;;2094336;28;20025;-70
2024/03/24 04:23:17;;;;;;;10.32;7.43;;;7.10;99.90;;;;;;2085510;28;20068;-71
2024/03/24 04:24:18;;;;;;;9.95;7.80;;;7.10;99.90;;;;;;2085562;28;20060;-71
2024/03/24 04:25:19;;;;;;;10.38;7.78;;;7.10;99.90;;;;;;2094378;28;20028;-70
2024/03/24 04:26:19;;;;;;;9.05;7.45;;;7.10;99.90;;;;;;2093567;28;20024;-71
2024/03/24 04:27:20;;;;;;;9.77;8.77;;;7.10;99.90;;;;;;2091501;28;20021;-71
2024/03/24 04:28:20;;;;;;;9.95;7.93;;;7.20;99.90;;;;;;2093657;28;20032;-71
2024/03/24 04:29:21;;;;;;;9.60;7.30;;;7.10;99.90;;;;;;2095636;28;20082;-70
2024/03/24 04:30:21;;;;;;;12.77;7.88;;;7.10;99.90;;;;;;2094836;28;20082;-70
2024/03/24 04:31:22;;;;;;;10.43;8.40;;;7.10;99.90;;;;;;2095429;28;20400;-71
2024/03/24 04:32:23;;;;;;;9.35;8.27;;;7.10;99.90;;;;;;2092611;28;20029;-70
2024/03/24 04:33:23;;;;;;;9.32;7.80;;;7.10;99.90;;;;;;2095192;28;20020;-71
2024/03/24 04:34:24;;;;;;;12.13;8.13;;;7.20;99.90;;;;;;2083742;28;20078;-70
2024/03/24 04:35:24;;;;;;;11.10;8.30;;;7.20;99.90;;;;;;2085185;28;20037;-71
2024/03/24 04:36:25;;;;;;;10.85;8.48;;;7.20;99.90;;;;;;2093673;28;20063;-70
2024/03/24 04:37:25;;;;;;;9.25;8.07;;;7.20;99.90;;;;;;2093932;28;20047;-70
2024/03/24 04:38:26;;;;;;;11.10;8.10;;;7.10;99.90;;;;;;2095199;28;20031;-70
2024/03/24 04:39:27;;;;;;;12.18;8.20;;;7.20;99.90;;;;;;2091721;28;20077;-69
2024/03/24 04:40:28;;;;;;;12.18;8.55;;;7.10;99.90;;;;;;2091870;28;20027;-70
2024/03/24 04:41:29;;;;;;;11.85;8.35;;;7.20;99.90;;;;;;2095118;28;20036;-70
2024/03/24 04:42:29;;;;;;;12.00;8.80;;;7.20;99.90;;;;;;2095033;28;20819;-70
2024/03/24 04:43:30;;;;;;;13.20;8.73;;;7.20;99.90;;;;;;2093256;28;20605;-71
2024/03/24 04:44:30;;;;;;;11.10;8.98;;;7.20;99.90;;;;;;2094058;28;20033;-70
2024/03/24 04:45:31;;;;;;;11.98;9.30;;;7.20;99.90;;;;;;2094224;28;20032;-69
2024/03/24 04:46:34;;;;;;;11.57;8.68;;;7.20;99.90;;;;;;2094504;28;20109;-70
2024/03/24 04:47:34;;;;;;;10.32;9.23;;;7.20;99.90;;;;;;2094050;28;20385;-69
2024/03/24 04:48:35;;;;;;;12.52;8.70;;;7.20;99.90;;;;;;2094690;28;20174;-71
2024/03/24 04:49:35;;;;;;;10.75;8.48;;;7.20;99.90;;;;;;2087505;28;20035;-71
2024/03/24 04:50:36;;;;;;;10.05;8.23;;;7.20;99.90;;;;;;2086606;28;20112;-70
2024/03/24 04:51:37;;;;;;;9.35;7.72;;;7.20;99.90;;;;;;2093168;28;20021;-70
2024/03/24 04:52:40;;;;;;;11.43;8.77;;;7.20;99.90;;;;;;2094913;28;20415;-71
2024/03/24 04:53:41;;;;;;;10.60;8.38;;;7.20;99.90;;;;;;2093408;28;20021;-70
2024/03/24 04:54:41;;;;;;;10.50;9.07;;;7.20;99.90;;;;;;2093233;28;20024;-70
2024/03/24 04:55:42;;;;;;;12.73;8.70;;;7.20;99.90;;;;;;2094589;28;20029;-70
2024/03/24 04:56:42;;;;;;;9.80;8.52;;;7.20;99.90;;;;;;2086359;28;20052;-71
2024/03/24 04:57:43;;;;;;;12.38;8.50;;;7.20;99.90;;;;;;2088340;28;20025;-70
2024/03/24 04:58:43;;;;;;;13.02;8.90;;;7.20;99.90;;;;;;2094343;28;20033;-71
2024/03/24 04:59:44;;;;;;;9.85;8.05;;;7.20;99.90;;;;;;2096136;28;20032;-70
2024/03/24 05:00:45;;;;;;;9.05;7.50;;;7.20;99.90;;;;;;2094301;28;20362;-70
2024/03/24 05:01:45;;;;;;;10.77;6.90;;;7.20;99.90;;;;;;2094442;28;20024;-70
2024/03/24 05:02:46;;;;;;;11.00;7.47;;;7.20;99.90;;;;;;2094257;28;20646;-70
2024/03/24 05:03:46;;;;;;;8.90;7.78;;;7.20;99.90;;;;;;2093847;28;20033;-70
2024/03/24 05:04:49;;;;;;;9.00;7.82;;;7.20;99.90;;;;;;2094162;28;20029;-71
2024/03/24 05:05:49;;;;;;;11.93;7.80;;;7.20;99.90;;;;;;2093820;28;20504;-71
2024/03/24 05:06:50;;;;;;;11.00;8.05;;;7.20;99.90;;;;;;2094534;28;20377;-71
2024/03/24 05:07:51;;;;;;;11.82;7.53;;;7.20;99.90;;;;;;2093896;28;20051;-71
2024/03/24 05:08:51;;;;;;;8.70;7.72;;;7.20;99.90;;;;;;2094157;28;20033;-71
2024/03/24 05:09:53;;;;;;;11.27;7.50;;;7.20;99.90;;;;;;2094774;28;20041;-71
2024/03/24 05:10:53;;;;;;;9.05;8.05;;;7.20;99.90;;;;;;2093948;28;20021;-70
2024/03/24 05:11:54;;;;;;;9.23;8.32;;;7.20;99.90;;;;;;2093654;28;20099;-71
2024/03/24 05:12:55;;;;;;;8.85;8.00;;;7.20;99.90;;;;;;2085224;28;20919;-71
2024/03/24 05:13:55;;;;;;;11.10;8.27;;;7.20;99.90;;;;;;2085713;28;20029;-70
2024/03/24 05:14:56;;;;;;;12.80;8.30;;;7.20;99.90;;;;;;2092774;28;20016;-71
2024/03/24 05:15:57;;;;;;;8.77;7.50;;;7.20;99.90;;;;;;2095226;28;20039;-70
2024/03/24 05:16:58;;;;;;;9.65;7.97;;;7.30;99.90;;;;;;2093273;28;20021;-70
2024/03/24 05:17:58;;;;;;;8.50;7.22;;;7.30;99.90;;;;;;2094491;28;20020;-70
2024/03/24 05:19:02;;;;;;;9.35;7.10;;;7.30;99.90;;;;;;2094623;28;20033;-70
2024/03/24 05:20:03;;;;;;;10.32;7.22;;;7.30;99.90;;;;;;2094352;28;20044;-70